Time;durP1;ratioP1;P1;durP2;ratioP2;P2;SDS_P1;SDS_P2;PMS_P1;PMS_P2;Temp;Humidity;BMP_temperature;BMP_pressure;BME280_temperature;BME280_humidity;BME280_pressure;Samples;Min_cycle;Max_cycle;Signal;HPM_P1;HPM_P2
2023/10/02 00:07:15;;;;;;;0.20;0.20;;;;;;;18.17;58.70;101732.78;15676732;28;20572;-50
2023/10/02 00:14:48;;;;;;;0.10;0.10;;;;;;;18.23;58.85;101731.00;15658991;28;20094;-50
2023/10/02 00:22:41;;;;;;;1.13;1.02;;;;;;;18.28;59.49;101728.44;15658944;28;20049;-51
2023/10/02 00:30:14;;;;;;;1.38;0.47;;;;;;;18.27;59.12;101716.72;15676644;23;20114;-50
2023/10/02 00:37:51;;;;;;;0.40;0.40;;;;;;;18.29;60.23;101730.91;15677044;28;20045;-51
2023/10/02 00:45:24;;;;;;;0.35;0.30;;;;;;;18.22;59.45;101723.94;15641939;28;20402;-54
2023/10/02 00:53:03;;;;;;;0.05;0.05;;;;;;;17.80;60.14;101730.28;15650925;28;20509;-52
2023/10/02 01:00:42;;;;;;;0.20;0.20;;;;;;;18.00;59.52;101735.41;15654497;28;20095;-53
2023/10/02 01:08:24;;;;;;;0.00;0.00;;;;;;;17.89;60.06;101725.34;15670325;28;20053;-50
2023/10/02 01:15:59;;;;;;;6.13;0.57;;;;;;;18.16;59.23;101722.19;15659289;28;20052;-49
2023/10/02 01:24:06;;;;;;;0.70;0.52;;;;;;;18.15;59.68;101724.06;15651134;28;20045;-52
2023/10/02 01:31:42;;;;;;;0.30;0.30;;;;;;;18.15;59.43;101726.78;15601041;28;20486;-50
2023/10/02 01:39:21;;;;;;;0.20;0.20;;;;;;;18.19;59.97;101721.72;15657270;28;20041;-50
2023/10/02 01:46:55;;;;;;;0.55;0.43;;;;;;;18.17;59.35;101719.22;15654997;28;20144;-51
2023/10/02 01:54:30;;;;;;;1.90;1.00;;;;;;;18.07;60.29;101725.25;15652397;28;20065;-51
2023/10/02 02:02:12;;;;;;;0.40;0.40;;;;;;;18.06;60.07;101728.19;15653130;28;20107;-51
2023/10/02 02:09:46;;;;;;;0.00;0.00;;;;;;;17.95;61.29;101729.00;15655221;28;20048;-50
2023/10/02 02:17:22;;;;;;;0.98;0.90;;;;;;;18.25;59.89;101718.84;15669089;28;20124;-51
2023/10/02 02:24:59;;;;;;;0.10;0.10;;;;;;;18.22;60.91;101721.22;15663936;28;20049;-51
2023/10/02 02:32:44;;;;;;;0.55;0.55;;;;;;;18.14;61.10;101716.13;15663943;28;20041;-50
2023/10/02 02:40:25;;;;;;;0.13;0.13;;;;;;;17.87;61.58;101704.94;15659725;28;20124;-51
2023/10/02 02:48:03;;;;;;;0.00;0.00;;;;;;;17.80;61.47;101702.31;15672988;28;20065;-49
2023/10/02 02:55:38;;;;;;;0.03;0.03;;;;;;;17.81;61.46;101712.09;15661048;28;20045;-52
2023/10/02 03:11:04;;;;;;;1.75;0.30;;;;;;;17.27;63.21;101708.53;15669111;28;20140;-50
2023/10/02 03:18:37;;;;;;;0.00;0.00;;;;;;;16.99;63.88;101711.88;15742394;28;20047;-49
2023/10/02 03:41:57;;;;;;;2.28;1.00;;;;;;;16.92;63.54;101697.53;15645533;28;20506;-51
2023/10/02 03:49:30;;;;;;;0.22;0.22;;;;;;;16.68;63.99;101691.16;15670203;28;20417;-50
2023/10/02 03:57:10;;;;;;;1.20;1.15;;;;;;;16.32;65.09;101690.13;15666226;28;20479;-51
2023/10/02 04:04:43;;;;;;;0.28;0.28;;;;;;;16.16;65.99;101680.69;15668380;28;20094;-51
2023/10/02 04:12:18;;;;;;;5.32;0.73;;;;;;;16.64;64.37;101677.22;15675194;28;20045;-50
2023/10/02 04:19:56;;;;;;;0.00;0.00;;;;;;;16.49;64.75;101664.06;15664932;28;20484;-51
2023/10/02 04:28:00;;;;;;;0.50;0.38;;;;;;;16.50;64.70;101657.56;15658787;28;20052;-51
2023/10/02 04:43:19;;;;;;;0.20;0.20;;;;;;;16.28;65.32;101659.94;15672986;28;20049;-52
2023/10/02 04:50:55;;;;;;;1.15;0.98;;;;;;;16.21;65.71;101655.63;15686088;28;20045;-51
2023/10/02 04:58:30;;;;;;;0.15;0.15;;;;;;;16.41;64.76;101645.38;15683459;28;20041;-54
2023/10/02 05:06:06;;;;;;;0.25;0.25;;;;;;;16.20;65.09;101662.13;15668811;28;20052;-49
2023/10/02 05:13:59;;;;;;;3.63;1.38;;;;;;;16.00;65.35;101651.50;15689845;28;20037;-53
2023/10/02 05:21:39;;;;;;;3.33;0.68;;;;;;;15.90;66.18;101667.41;15689000;28;20056;-48
2023/10/02 05:29:17;;;;;;;0.00;0.00;;;;;;;15.72;66.83;101679.03;15685012;28;20063;-49
2023/10/02 05:37:11;;;;;;;0.43;0.43;;;;;;;15.81;66.58;101678.53;15686850;28;20596;-51
2023/10/02 05:44:47;;;;;;;0.20;0.20;;;;;;;15.77;66.34;101673.78;15673017;28;20045;-51
2023/10/02 05:52:23;;;;;;;0.55;0.55;;;;;;;15.59;67.29;101685.34;15687590;28;20049;-52
2023/10/02 06:00:00;;;;;;;0.13;0.13;;;;;;;15.70;67.21;101681.13;15678059;28;20045;-51
2023/10/02 06:07:43;;;;;;;0.00;0.00;;;;;;;15.03;69.00;101695.09;15669141;28;20053;-51
2023/10/02 06:23:19;;;;;;;0.05;0.05;;;;;;;16.11;65.99;101702.19;15675124;28;20497;-51
2023/10/02 06:30:54;;;;;;;4.45;1.05;;;;;;;16.38;65.60;101712.78;15556747;23;20124;-54
2023/10/02 06:38:29;;;;;;;2.22;0.88;;;;;;;16.64;64.63;101704.31;15553928;28;20046;-53
2023/10/02 06:46:09;;;;;;;0.22;0.22;;;;;;;17.07;63.99;101703.41;15546019;28;20384;-47
2023/10/02 06:53:42;;;;;;;0.00;0.00;;;;;;;17.82;60.91;101684.72;15527662;28;20049;-52
2023/10/02 07:01:18;;;;;;;0.20;0.17;;;;;;;17.67;61.45;101697.06;15519547;28;20049;-49
2023/10/02 07:09:10;;;;;;;0.43;0.43;;;;;;;18.09;61.22;101689.66;15551747;28;20469;-48
2023/10/02 07:16:47;;;;;;;1.08;0.63;;;;;;;17.66;61.56;101688.09;15551545;28;20049;-54
2023/10/02 07:24:27;;;;;;;0.00;0.00;;;;;;;18.61;59.40;101692.44;15550071;28;20074;-53
2023/10/02 07:32:02;;;;;;;0.10;0.10;;;;;;;19.65;57.50;101697.69;15507737;28;20096;-49
2023/10/02 07:39:38;;;;;;;4.38;0.75;;;;;;;20.22;56.12;101696.66;15550701;28;20387;-48
2023/10/02 07:47:18;;;;;;;0.43;0.43;;;;;;;20.40;55.09;101704.53;15531989;28;20050;-52
2023/10/02 07:54:51;;;;;;;0.03;0.03;;;;;;;20.43;54.52;101697.78;15550001;28;20530;-51
2023/10/02 08:02:30;;;;;;;8.00;0.65;;;;;;;20.48;54.85;101687.78;15549859;28;20046;-52
2023/10/02 08:10:05;;;;;;;0.45;0.45;;;;;;;21.32;53.31;101679.19;15548971;28;20077;-51
2023/10/02 08:25:33;;;;;;;0.10;0.10;;;;;;;22.37;50.81;101676.63;15542092;28;20046;-47
2023/10/02 08:33:09;;;;;;;1.95;0.93;;;;;;;22.21;50.63;101683.13;15534110;28;20069;-49
2023/10/02 08:40:43;;;;;;;0.73;0.73;;;;;;;22.33;51.19;101678.25;15534957;28;20081;-51
2023/10/02 08:48:20;;;;;;;0.40;0.32;;;;;;;22.22;51.30;101682.03;15546755;28;20053;-50
2023/10/02 08:56:22;;;;;;;2.63;0.55;;;;;;;22.78;50.34;101679.53;15535365;28;20044;-51
2023/10/02 09:04:21;;;;;;;0.38;0.30;;;;;;;23.21;49.48;101682.94;15560200;28;20092;-52
2023/10/02 09:12:03;;;;;;;0.23;0.23;;;;;;;23.38;49.84;101675.28;15556111;28;20129;-51
2023/10/02 09:19:39;;;;;;;0.20;0.20;;;;;;;23.52;49.24;101658.31;15583644;28;20045;-52
2023/10/02 09:27:24;;;;;;;0.65;0.63;;;;;;;23.85;47.88;101663.22;15581002;28;20046;-49
2023/10/02 09:35:13;;;;;;;1.25;1.15;;;;;;;24.14;48.68;101652.47;15550656;28;20042;-50
2023/10/02 09:42:56;;;;;;;0.90;0.53;;;;;;;23.99;48.83;101649.78;15566406;28;20120;-51
2023/10/02 09:50:33;;;;;;;1.23;1.10;;;;;;;23.91;49.16;101642.91;15536877;28;20056;-48
2023/10/02 09:58:26;;;;;;;0.05;0.05;;;;;;;23.79;49.13;101630.63;15551772;28;20049;-54
2023/10/02 10:06:28;;;;;;;1.00;0.93;;;;;;;24.69;47.48;101619.59;15578679;28;20146;-52
2023/10/02 10:14:36;;;;;;;0.70;0.70;;;;;;;25.24;46.49;101620.34;15516544;28;20270;-50
2023/10/02 10:22:38;;;;;;;0.57;0.52;;;;;;;25.03;46.36;101610.56;15543624;28;20060;-54
2023/10/02 10:30:39;;;;;;;0.27;0.27;;;;;;;25.53;44.81;101605.78;15535116;28;20073;-56
2023/10/02 10:38:41;;;;;;;0.22;0.22;;;;;;;26.44;43.24;101610.31;15532020;28;20046;-50
2023/10/02 10:46:19;;;;;;;1.02;0.75;;;;;;;26.56;42.92;101587.81;15532658;28;20104;-61
2023/10/02 10:54:12;;;;;;;0.90;0.30;;;;;;;25.23;45.29;101582.13;15534807;28;20041;-56
2023/10/02 11:02:09;;;;;;;6.43;0.77;;;;;;;24.78;45.62;101579.44;15578214;28;20277;-51
2023/10/02 11:09:45;;;;;;;3.70;0.70;;;;;;;25.81;43.71;101573.91;15564272;28;20045;-54
2023/10/02 11:17:32;;;;;;;1.10;0.93;;;;;;;26.51;42.50;101562.31;15555046;28;20128;-51
2023/10/02 11:25:19;;;;;;;0.80;0.80;;;;;;;26.55;41.88;101553.16;15546309;28;20088;-55
2023/10/02 11:32:54;;;;;;;0.10;0.10;;;;;;;26.33;41.92;101531.69;15573148;28;20045;-54
2023/10/02 11:40:29;;;;;;;2.78;0.63;;;;;;;27.34;40.22;101542.22;15573942;28;20158;-51
2023/10/02 11:48:02;;;;;;;0.60;0.50;;;;;;;27.22;40.20;101536.38;15582019;28;20065;-54
2023/10/02 11:55:36;;;;;;;2.08;0.85;;;;;;;27.37;40.70;101535.28;15537139;28;20077;-53
2023/10/02 12:03:09;;;;;;;0.20;0.20;;;;;;;27.50;40.45;101534.47;15531321;28;20121;-51
2023/10/02 12:10:44;;;;;;;3.60;0.50;;;;;;;27.27;40.74;101513.41;15529608;28;20065;-56
2023/10/02 12:18:21;;;;;;;7.47;1.65;;;;;;;28.45;39.05;101519.00;15535606;28;20057;-52
2023/10/02 12:25:56;;;;;;;6.07;0.32;;;;;;;28.76;38.61;101511.91;15540153;28;20058;-56
2023/10/02 12:33:31;;;;;;;0.63;0.25;;;;;;;27.30;41.34;101510.06;15537716;28;20564;-54
2023/10/02 12:41:13;;;;;;;2.25;0.60;;;;;;;26.86;41.87;101503.06;15542438;28;20064;-55
2023/10/02 12:48:48;;;;;;;0.60;0.60;;;;;;;26.91;42.06;101506.59;15547238;28;20077;-50
2023/10/02 12:56:24;;;;;;;2.05;0.98;;;;;;;27.07;41.75;101500.78;15521598;28;20157;-55
2023/10/02 13:03:59;;;;;;;0.20;0.20;;;;;;;26.85;41.40;101491.22;15541644;28;20050;-55
2023/10/02 13:11:39;;;;;;;5.82;0.40;;;;;;;27.43;41.09;101476.97;15546113;28;20103;-56
2023/10/02 13:19:12;;;;;;;0.00;0.00;;;;;;;26.47;42.58;101478.66;15543557;28;20160;-51
2023/10/02 13:26:47;;;;;;;0.63;0.52;;;;;;;27.15;41.52;101469.81;15559768;28;20044;-54
2023/10/02 13:34:21;;;;;;;1.80;0.55;;;;;;;27.18;41.52;101470.00;15561843;28;20045;-52
2023/10/02 13:41:58;;;;;;;0.15;0.15;;;;;;;27.41;40.99;101453.59;15588914;28;20426;-52
2023/10/02 13:49:31;;;;;;;1.25;0.30;;;;;;;26.88;42.33;101449.31;15575783;28;20050;-53
2023/10/02 13:57:07;;;;;;;0.15;0.15;;;;;;;27.63;40.95;101439.06;15548386;28;20050;-49
2023/10/02 14:04:41;;;;;;;0.13;0.10;;;;;;;26.76;42.45;101440.72;15543417;28;20132;-50
2023/10/02 14:12:16;;;;;;;2.20;0.68;;;;;;;27.06;42.95;101433.03;15539390;28;20053;-54
2023/10/02 14:19:49;;;;;;;0.65;0.57;;;;;;;26.73;42.56;101441.34;15509033;28;20140;-55
2023/10/02 14:27:24;;;;;;;2.92;0.88;;;;;;;26.59;43.48;101432.22;15536995;28;20046;-54
2023/10/02 14:34:57;;;;;;;4.38;1.02;;;;;;;25.80;44.75;101434.75;15523239;28;20078;-54
2023/10/02 14:42:32;;;;;;;3.08;0.65;;;;;;;25.58;44.83;101435.28;15515968;28;20129;-52
2023/10/02 14:50:06;;;;;;;0.45;0.38;;;;;;;26.56;42.99;101432.81;15582571;28;20079;-53
2023/10/02 14:57:45;;;;;;;0.00;0.00;;;;;;;25.81;43.97;101434.44;15541706;28;20460;-53
2023/10/02 15:05:19;;;;;;;0.20;0.20;;;;;;;25.91;44.36;101430.75;15528490;28;20038;-55
2023/10/02 15:12:54;;;;;;;9.95;1.08;;;;;;;25.90;43.99;101413.44;15548471;28;20079;-54
2023/10/02 15:20:31;;;;;;;1.05;0.73;;;;;;;26.18;44.40;101421.81;15549614;28;20057;-56
2023/10/02 15:28:07;;;;;;;0.73;0.50;;;;;;;26.37;45.56;101427.31;15540871;28;20363;-51
2023/10/02 15:35:42;;;;;;;0.25;0.25;;;;;;;26.25;45.78;101429.69;15520649;28;20037;-52
2023/10/02 15:43:17;;;;;;;7.70;0.50;;;;;;;26.17;46.39;101421.00;15532728;28;20103;-55
2023/10/02 15:50:53;;;;;;;0.43;0.43;;;;;;;26.19;45.72;101420.69;15540523;28;20046;-52
2023/10/02 15:58:28;;;;;;;0.13;0.13;;;;;;;26.09;48.31;101426.38;15537750;28;20125;-52
2023/10/02 16:06:02;;;;;;;1.75;1.25;;;;;;;25.64;49.84;101425.84;15547594;28;20105;-52
2023/10/02 16:13:37;;;;;;;1.08;0.98;;;;;;;25.33;51.29;101415.25;15555960;28;20050;-51
2023/10/02 16:21:11;;;;;;;1.30;1.20;;;;;;;25.13;50.74;101401.72;15542370;28;20534;-52
2023/10/02 16:28:50;;;;;;;5.20;1.85;;;;;;;24.94;52.34;101407.94;15552497;28;20146;-56
2023/10/02 16:36:25;;;;;;;0.60;0.60;;;;;;;24.82;51.75;101373.75;15552619;28;20060;-49
2023/10/02 16:44:03;;;;;;;0.85;0.20;;;;;;;24.71;53.33;101408.72;15530417;28;20100;-48
2023/10/02 16:51:37;;;;;;;0.43;0.40;;;;;;;24.70;50.88;101404.34;15548844;28;20149;-49
2023/10/02 16:59:12;;;;;;;1.10;0.52;;;;;;;24.73;49.33;101411.19;15533853;28;20046;-52
2023/10/02 17:06:45;;;;;;;0.52;0.52;;;;;;;24.51;49.61;101411.66;15544969;28;20108;-48
2023/10/02 17:14:20;;;;;;;1.33;0.57;;;;;;;24.62;49.50;101410.44;15558829;28;20073;-48
2023/10/02 17:21:54;;;;;;;1.15;0.95;;;;;;;24.67;50.23;101419.47;15560087;28;20046;-49
2023/10/02 17:29:28;;;;;;;4.55;1.92;;;;;;;24.49;50.72;101411.13;15558178;28;20045;-51
2023/10/02 17:37:02;;;;;;;1.50;0.25;;;;;;;24.25;52.51;101408.25;15558922;28;20052;-54
2023/10/02 17:44:37;;;;;;;17.20;1.45;;;;;;;23.86;53.68;101393.44;15558000;28;20407;-51
2023/10/02 17:52:11;;;;;;;0.52;0.47;;;;;;;23.87;53.72;101417.00;15538529;28;20555;-53
2023/10/02 17:59:45;;;;;;;0.57;0.57;;;;;;;23.37;55.28;101399.69;15557795;28;20484;-51
2023/10/02 18:07:19;;;;;;;0.65;0.45;;;;;;;23.20;55.74;101393.72;15556212;28;20061;-49
2023/10/02 18:14:54;;;;;;;1.90;1.30;;;;;;;22.90;57.24;101384.50;15555836;28;20432;-52
2023/10/02 18:22:27;;;;;;;1.10;0.95;;;;;;;22.68;57.42;101378.47;15555551;28;20049;-52
2023/10/02 18:30:02;;;;;;;0.55;0.30;;;;;;;22.18;56.82;101377.38;15565950;23;20073;-45
2023/10/02 18:37:36;;;;;;;0.52;0.52;;;;;;;22.66;56.50;101376.00;15558869;28;20038;-47
2023/10/02 18:45:11;;;;;;;0.13;0.10;;;;;;;22.29;58.12;101372.72;15541894;28;20034;-45
2023/10/02 18:52:44;;;;;;;0.63;0.63;;;;;;;22.00;58.81;101373.22;15536806;28;20053;-48
2023/10/02 19:00:20;;;;;;;3.40;0.98;;;;;;;21.78;59.05;101368.00;15551157;28;20073;-45
2023/10/02 19:07:53;;;;;;;0.85;0.85;;;;;;;21.67;59.74;101352.66;15550660;28;20096;-49
2023/10/02 19:15:28;;;;;;;2.70;1.67;;;;;;;21.56;60.12;101351.00;15539661;28;20113;-52
2023/10/02 19:23:01;;;;;;;0.38;0.38;;;;;;;21.26;60.61;101352.47;15538848;28;20053;-46
2023/10/02 19:30:36;;;;;;;0.60;0.60;;;;;;;21.05;61.24;101337.94;15543207;28;20105;-47
2023/10/02 19:38:10;;;;;;;4.68;1.58;;;;;;;20.94;61.00;101341.72;15532989;28;20046;-50
2023/10/02 19:45:44;;;;;;;0.43;0.43;;;;;;;20.83;61.63;101335.34;15537614;28;20043;-49
2023/10/02 19:53:17;;;;;;;4.40;0.88;;;;;;;20.71;62.04;101331.19;15536133;28;20049;-51
2023/10/02 20:00:52;;;;;;;0.03;0.03;;;;;;;20.55;62.75;101331.09;15535294;28;20044;-48
2023/10/02 20:08:25;;;;;;;2.53;0.20;;;;;;;20.45;62.71;101313.81;15554662;28;20041;-48
2023/10/02 20:15:59;;;;;;;1.02;0.77;;;;;;;20.44;62.95;101313.00;15554908;28;20037;-46
2023/10/02 20:23:33;;;;;;;1.92;1.48;;;;;;;20.41;62.72;101313.50;15553654;28;20466;-46
2023/10/02 20:31:10;;;;;;;0.10;0.10;;;;;;;20.28;62.84;101303.84;15553219;28;20042;-54
2023/10/02 20:38:43;;;;;;;1.35;1.05;;;;;;;20.07;63.79;101294.72;15536100;28;20050;-46
2023/10/02 20:46:18;;;;;;;1.33;1.25;;;;;;;20.05;63.74;101279.69;15573122;28;20104;-46
2023/10/02 20:53:52;;;;;;;1.60;1.10;;;;;;;20.24;62.42;101270.06;15555160;28;20046;-47
2023/10/02 21:01:27;;;;;;;0.22;0.22;;;;;;;19.97;62.83;101267.38;15570160;28;20061;-52
2023/10/02 21:09:00;;;;;;;0.43;0.38;;;;;;;19.91;62.54;101256.69;15571884;28;20038;-48
2023/10/02 21:16:35;;;;;;;0.75;0.75;;;;;;;19.64;63.28;101257.56;15567327;28;20054;-45
2023/10/02 21:24:09;;;;;;;1.48;0.38;;;;;;;19.59;63.48;101260.19;15557656;28;20046;-48
2023/10/02 21:31:43;;;;;;;0.47;0.47;;;;;;;19.36;63.92;101266.78;15572425;28;20499;-52
2023/10/02 21:39:18;;;;;;;7.70;1.73;;;;;;;19.23;64.61;101269.88;15553604;28;20140;-48
2023/10/02 21:46:52;;;;;;;0.32;0.30;;;;;;;19.03;64.87;101260.41;15571178;28;20088;-50
2023/10/02 21:54:26;;;;;;;2.20;2.00;;;;;;;18.80;65.39;101249.78;15562804;28;21979;-49
2023/10/02 22:02:01;;;;;;;2.38;1.38;;;;;;;18.63;65.40;101260.66;15539548;28;20113;-51
2023/10/02 22:09:34;;;;;;;1.85;1.38;;;;;;;18.43;66.48;101244.91;15561491;28;20046;-48
2023/10/02 22:17:13;;;;;;;1.20;1.10;;;;;;;18.38;66.34;101230.44;15560259;28;20037;-47
2023/10/02 22:24:48;;;;;;;0.52;0.40;;;;;;;18.31;66.53;101225.97;15560118;28;20042;-50
2023/10/02 22:32:22;;;;;;;;;;;;;;;18.29;66.45;101224.59;15560667;28;20387;-47
2023/10/02 22:39:55;;;;;;;6.93;0.55;;;;;;;18.16;66.26;101216.78;15542989;28;19921;-46
2023/10/02 22:47:31;;;;;;;0.93;0.90;;;;;;;17.94;66.69;101214.81;15559787;28;20521;-46
2023/10/02 22:55:06;;;;;;;2.13;1.52;;;;;;;17.82;66.85;101209.47;15540813;28;21156;-50
2023/10/02 23:02:43;;;;;;;0.85;0.38;;;;;;;17.72;67.35;101200.28;15551585;28;20357;-48
2023/10/02 23:10:18;;;;;;;0.68;0.68;;;;;;;17.55;67.60;101205.72;15558214;28;20060;-49
2023/10/02 23:17:53;;;;;;;1.13;0.38;;;;;;;17.55;67.29;101200.28;15557167;28;20034;-47
2023/10/02 23:25:28;;;;;;;6.40;0.93;;;;;;;17.38;67.39;101194.84;15539154;28;20046;-52
2023/10/02 23:33:03;;;;;;;0.63;0.63;;;;;;;17.20;68.17;101185.00;15556517;28;20038;-50
2023/10/02 23:40:38;;;;;;;1.45;1.35;;;;;;;17.14;68.13;101168.91;15538802;28;20046;-50
2023/10/02 23:48:19;;;;;;;0.45;0.45;;;;;;;17.03;68.54;101155.16;15555732;28;20120;-48
2023/10/02 23:55:58;;;;;;;0.30;0.30;;;;;;;16.99;68.38;101145.03;15555543;28;20458;-52
